Slidell, Louisiana
Current Conditions -  °F | °C
As of 1:53 PM on Wednesday 26 Nov 2014 (Local Time) from KASD Reporting Station
Clear Clear  
Wind Chill: 63°   Ceiling: Unl
Heat Index: 63°   Visibility: 10mi
Dew Point: 33°   Wind: 9mph
Humidity: 33%   Direction: 220°SW
Pressure: 30.18"   Gusts: NA
Location:  30.28°N, 89.78°W
Report Text: KASD 261953Z AUTO 22008KT 190V250 10SM CLR 17/01 A3018 RMK AO2 SLP221 T01720006
Loading
Personal Weather Stations






























Interactive Weather Map New forecast layout! Learn more

10-Day Weather Forecast

Advertisements
Track Severe Weather on mobile